sensor_id;sensor_type;location;lat;lon;timestamp;P1;durP1;ratioP1;P2;durP2;ratioP2
18176;SDS011;9213;50.858;3.964;2022-09-09T00:00:17;4.80;;;2.30;;
18176;SDS011;9213;50.858;3.964;2022-09-09T00:02:47;6.37;;;3.00;;
18176;SDS011;9213;50.858;3.964;2022-09-09T00:05:22;4.53;;;2.47;;
18176;SDS011;9213;50.858;3.964;2022-09-09T00:07:58;4.30;;;2.57;;
18176;SDS011;9213;50.858;3.964;2022-09-09T00:10:29;4.30;;;2.83;;
18176;SDS011;9213;50.858;3.964;2022-09-09T00:13:02;5.40;;;2.77;;
18176;SDS011;9213;50.858;3.964;2022-09-09T00:15:42;6.57;;;2.63;;
18176;SDS011;9213;50.858;3.964;2022-09-09T00:18:21;8.87;;;2.63;;
18176;SDS011;9213;50.858;3.964;2022-09-09T00:20:52;6.73;;;3.20;;
18176;SDS011;9213;50.858;3.964;2022-09-09T00:23:27;6.63;;;2.80;;
18176;SDS011;9213;50.858;3.964;2022-09-09T00:25:58;5.73;;;2.93;;
18176;SDS011;9213;50.858;3.964;2022-09-09T00:28:36;5.37;;;2.90;;
18176;SDS011;9213;50.858;3.964;2022-09-09T00:31:11;5.20;;;2.83;;
18176;SDS011;9213;50.858;3.964;2022-09-09T00:33:39;5.23;;;2.90;;
18176;SDS011;9213;50.858;3.964;2022-09-09T00:36:09;8.97;;;2.60;;
18176;SDS011;9213;50.858;3.964;2022-09-09T00:38:42;6.20;;;2.50;;
18176;SDS011;9213;50.858;3.964;2022-09-09T00:41:14;6.67;;;2.60;;
18176;SDS011;9213;50.858;3.964;2022-09-09T00:43:50;6.37;;;2.40;;
18176;SDS011;9213;50.858;3.964;2022-09-09T00:46:33;6.07;;;2.53;;
18176;SDS011;9213;50.858;3.964;2022-09-09T00:49:15;6.10;;;2.90;;
18176;SDS011;9213;50.858;3.964;2022-09-09T00:51:54;4.53;;;2.50;;
18176;SDS011;9213;50.858;3.964;2022-09-09T00:54:40;6.40;;;2.93;;
18176;SDS011;9213;50.858;3.964;2022-09-09T00:57:23;7.00;;;2.97;;
18176;SDS011;9213;50.858;3.964;2022-09-09T00:59:56;5.10;;;2.50;;
18176;SDS011;9213;50.858;3.964;2022-09-09T01:02:43;4.43;;;2.40;;
18176;SDS011;9213;50.858;3.964;2022-09-09T01:05:19;2.40;;;2.17;;
18176;SDS011;9213;50.858;3.964;2022-09-09T01:07:51;7.13;;;2.70;;
18176;SDS011;9213;50.858;3.964;2022-09-09T01:10:23;8.63;;;2.40;;
18176;SDS011;9213;50.858;3.964;2022-09-09T01:12:58;5.63;;;2.07;;
18176;SDS011;9213;50.858;3.964;2022-09-09T01:15:29;4.37;;;2.23;;
18176;SDS011;9213;50.858;3.964;2022-09-09T01:18:00;7.03;;;2.30;;
18176;SDS011;9213;50.858;3.964;2022-09-09T01:20:31;6.97;;;2.10;;
18176;SDS011;9213;50.858;3.964;2022-09-09T01:23:25;4.70;;;2.27;;
18176;SDS011;9213;50.858;3.964;2022-09-09T01:29:01;7.23;;;2.50;;
18176;SDS011;9213;50.858;3.964;2022-09-09T01:31:30;7.50;;;2.30;;
18176;SDS011;9213;50.858;3.964;2022-09-09T01:34:01;5.03;;;2.00;;
18176;SDS011;9213;50.858;3.964;2022-09-09T01:36:29;4.77;;;2.20;;
18176;SDS011;9213;50.858;3.964;2022-09-09T01:39:01;4.47;;;3.07;;
18176;SDS011;9213;50.858;3.964;2022-09-09T01:41:28;7.30;;;2.50;;
18176;SDS011;9213;50.858;3.964;2022-09-09T01:43:56;4.60;;;2.10;;
18176;SDS011;9213;50.858;3.964;2022-09-09T01:46:23;5.43;;;2.10;;
18176;SDS011;9213;50.858;3.964;2022-09-09T01:48:51;7.03;;;2.50;;
18176;SDS011;9213;50.858;3.964;2022-09-09T01:51:20;4.03;;;2.50;;
18176;SDS011;9213;50.858;3.964;2022-09-09T01:53:48;6.83;;;2.50;;
18176;SDS011;9213;50.858;3.964;2022-09-09T01:56:19;3.90;;;2.23;;
18176;SDS011;9213;50.858;3.964;2022-09-09T01:59:01;7.10;;;2.57;;
18176;SDS011;9213;50.858;3.964;2022-09-09T02:01:36;2.97;;;2.33;;
18176;SDS011;9213;50.858;3.964;2022-09-09T02:04:17;8.60;;;2.60;;
18176;SDS011;9213;50.858;3.964;2022-09-09T02:06:53;9.57;;;2.70;;
18176;SDS011;9213;50.858;3.964;2022-09-09T02:09:23;5.33;;;2.57;;
18176;SDS011;9213;50.858;3.964;2022-09-09T02:11:53;9.13;;;3.13;;
18176;SDS011;9213;50.858;3.964;2022-09-09T02:14:27;7.33;;;3.07;;
18176;SDS011;9213;50.858;3.964;2022-09-09T02:16:59;6.30;;;2.83;;
18176;SDS011;9213;50.858;3.964;2022-09-09T02:19:32;6.97;;;2.60;;
18176;SDS011;9213;50.858;3.964;2022-09-09T02:22:03;9.57;;;2.93;;
18176;SDS011;9213;50.858;3.964;2022-09-09T02:24:31;6.90;;;2.73;;
18176;SDS011;9213;50.858;3.964;2022-09-09T02:27:01;9.23;;;3.10;;
18176;SDS011;9213;50.858;3.964;2022-09-09T02:29:35;8.33;;;2.90;;
18176;SDS011;9213;50.858;3.964;2022-09-09T02:32:06;6.87;;;2.67;;
18176;SDS011;9213;50.858;3.964;2022-09-09T02:34:38;10.20;;;2.93;;
18176;SDS011;9213;50.858;3.964;2022-09-09T02:37:09;7.43;;;2.83;;
18176;SDS011;9213;50.858;3.964;2022-09-09T02:39:38;10.03;;;3.37;;
18176;SDS011;9213;50.858;3.964;2022-09-09T02:42:05;6.73;;;2.60;;
18176;SDS011;9213;50.858;3.964;2022-09-09T02:44:32;10.33;;;3.33;;
18176;SDS011;9213;50.858;3.964;2022-09-09T02:47:16;11.40;;;3.07;;
18176;SDS011;9213;50.858;3.964;2022-09-09T02:49:55;10.60;;;3.20;;
18176;SDS011;9213;50.858;3.964;2022-09-09T02:52:30;13.07;;;3.30;;
18176;SDS011;9213;50.858;3.964;2022-09-09T02:55:06;7.40;;;3.00;;
18176;SDS011;9213;50.858;3.964;2022-09-09T02:57:38;13.07;;;4.00;;
18176;SDS011;9213;50.858;3.964;2022-09-09T03:00:07;6.13;;;2.90;;
18176;SDS011;9213;50.858;3.964;2022-09-09T03:02:36;7.73;;;2.90;;
18176;SDS011;9213;50.858;3.964;2022-09-09T03:05:03;9.53;;;3.00;;
18176;SDS011;9213;50.858;3.964;2022-09-09T03:07:31;6.43;;;3.00;;
18176;SDS011;9213;50.858;3.964;2022-09-09T03:09:58;10.13;;;3.53;;
18176;SDS011;9213;50.858;3.964;2022-09-09T03:12:25;9.13;;;3.40;;
18176;SDS011;9213;50.858;3.964;2022-09-09T03:14:52;13.57;;;3.40;;
18176;SDS011;9213;50.858;3.964;2022-09-09T03:17:19;10.03;;;3.00;;
18176;SDS011;9213;50.858;3.964;2022-09-09T03:19:47;8.20;;;2.67;;
18176;SDS011;9213;50.858;3.964;2022-09-09T03:22:14;10.20;;;3.27;;
18176;SDS011;9213;50.858;3.964;2022-09-09T03:24:41;9.73;;;3.27;;
18176;SDS011;9213;50.858;3.964;2022-09-09T03:27:08;9.50;;;2.90;;
18176;SDS011;9213;50.858;3.964;2022-09-09T03:29:35;9.80;;;3.03;;
18176;SDS011;9213;50.858;3.964;2022-09-09T03:32:02;11.87;;;3.40;;
18176;SDS011;9213;50.858;3.964;2022-09-09T03:34:29;13.13;;;2.97;;
18176;SDS011;9213;50.858;3.964;2022-09-09T03:36:57;10.97;;;3.17;;
18176;SDS011;9213;50.858;3.964;2022-09-09T03:39:24;8.87;;;3.57;;
18176;SDS011;9213;50.858;3.964;2022-09-09T03:41:51;9.83;;;3.17;;
18176;SDS011;9213;50.858;3.964;2022-09-09T03:44:18;9.53;;;3.17;;
18176;SDS011;9213;50.858;3.964;2022-09-09T03:46:44;9.50;;;2.83;;
18176;SDS011;9213;50.858;3.964;2022-09-09T03:49:11;11.33;;;3.23;;
18176;SDS011;9213;50.858;3.964;2022-09-09T03:51:38;11.27;;;3.30;;
18176;SDS011;9213;50.858;3.964;2022-09-09T03:54:07;7.73;;;3.17;;
18176;SDS011;9213;50.858;3.964;2022-09-09T03:56:35;9.30;;;3.20;;
18176;SDS011;9213;50.858;3.964;2022-09-09T03:59:02;15.33;;;3.03;;
18176;SDS011;9213;50.858;3.964;2022-09-09T04:01:30;11.77;;;3.17;;
18176;SDS011;9213;50.858;3.964;2022-09-09T04:03:57;10.77;;;3.27;;
18176;SDS011;9213;50.858;3.964;2022-09-09T04:06:24;13.13;;;4.50;;
18176;SDS011;9213;50.858;3.964;2022-09-09T04:08:51;11.10;;;3.20;;
18176;SDS011;9213;50.858;3.964;2022-09-09T04:11:19;10.13;;;3.27;;
18176;SDS011;9213;50.858;3.964;2022-09-09T04:13:47;11.67;;;3.10;;
18176;SDS011;9213;50.858;3.964;2022-09-09T04:16:14;7.17;;;3.13;;
18176;SDS011;9213;50.858;3.964;2022-09-09T04:18:41;11.00;;;3.00;;
18176;SDS011;9213;50.858;3.964;2022-09-09T04:21:09;12.73;;;3.47;;
18176;SDS011;9213;50.858;3.964;2022-09-09T04:23:37;9.63;;;3.00;;
18176;SDS011;9213;50.858;3.964;2022-09-09T04:26:04;11.27;;;3.40;;
18176;SDS011;9213;50.858;3.964;2022-09-09T04:28:34;12.40;;;3.87;;
18176;SDS011;9213;50.858;3.964;2022-09-09T04:31:06;10.77;;;3.13;;
18176;SDS011;9213;50.858;3.964;2022-09-09T04:33:34;9.60;;;3.00;;
18176;SDS011;9213;50.858;3.964;2022-09-09T04:36:01;9.57;;;3.03;;
18176;SDS011;9213;50.858;3.964;2022-09-09T04:38:28;10.53;;;2.90;;
18176;SDS011;9213;50.858;3.964;2022-09-09T04:40:55;13.50;;;3.20;;
18176;SDS011;9213;50.858;3.964;2022-09-09T04:43:22;11.10;;;3.30;;
18176;SDS011;9213;50.858;3.964;2022-09-09T04:45:52;11.60;;;3.17;;
18176;SDS011;9213;50.858;3.964;2022-09-09T04:48:19;13.73;;;3.40;;
18176;SDS011;9213;50.858;3.964;2022-09-09T04:50:53;13.67;;;3.77;;
18176;SDS011;9213;50.858;3.964;2022-09-09T04:53:21;13.70;;;3.37;;
18176;SDS011;9213;50.858;3.964;2022-09-09T04:55:48;10.07;;;3.83;;
18176;SDS011;9213;50.858;3.964;2022-09-09T04:58:15;13.73;;;3.47;;
18176;SDS011;9213;50.858;3.964;2022-09-09T05:00:43;11.20;;;3.70;;
18176;SDS011;9213;50.858;3.964;2022-09-09T05:03:11;12.93;;;3.60;;
18176;SDS011;9213;50.858;3.964;2022-09-09T05:05:38;12.97;;;3.67;;
18176;SDS011;9213;50.858;3.964;2022-09-09T05:08:05;10.17;;;3.53;;
18176;SDS011;9213;50.858;3.964;2022-09-09T05:10:36;11.43;;;3.27;;
18176;SDS011;9213;50.858;3.964;2022-09-09T05:13:04;9.97;;;3.50;;
18176;SDS011;9213;50.858;3.964;2022-09-09T05:15:31;10.60;;;2.93;;
18176;SDS011;9213;50.858;3.964;2022-09-09T05:17:58;11.83;;;3.40;;
18176;SDS011;9213;50.858;3.964;2022-09-09T05:20:27;9.63;;;3.70;;
18176;SDS011;9213;50.858;3.964;2022-09-09T05:22:54;10.37;;;2.97;;
18176;SDS011;9213;50.858;3.964;2022-09-09T05:25:22;11.63;;;3.43;;
18176;SDS011;9213;50.858;3.964;2022-09-09T05:27:50;11.87;;;3.00;;
18176;SDS011;9213;50.858;3.964;2022-09-09T05:30:17;11.77;;;3.03;;
18176;SDS011;9213;50.858;3.964;2022-09-09T05:32:44;10.63;;;2.70;;
18176;SDS011;9213;50.858;3.964;2022-09-09T05:35:12;9.67;;;2.73;;
18176;SDS011;9213;50.858;3.964;2022-09-09T05:37:41;9.37;;;2.93;;
18176;SDS011;9213;50.858;3.964;2022-09-09T05:40:08;10.33;;;2.90;;
18176;SDS011;9213;50.858;3.964;2022-09-09T05:42:36;12.00;;;3.07;;
18176;SDS011;9213;50.858;3.964;2022-09-09T05:45:04;14.00;;;3.47;;
18176;SDS011;9213;50.858;3.964;2022-09-09T05:47:32;11.43;;;3.00;;
18176;SDS011;9213;50.858;3.964;2022-09-09T05:49:59;11.03;;;3.40;;
18176;SDS011;9213;50.858;3.964;2022-09-09T05:52:26;10.10;;;2.93;;
18176;SDS011;9213;50.858;3.964;2022-09-09T05:54:55;11.77;;;3.53;;
18176;SDS011;9213;50.858;3.964;2022-09-09T05:57:22;10.50;;;2.67;;
18176;SDS011;9213;50.858;3.964;2022-09-09T05:59:49;9.17;;;3.00;;
18176;SDS011;9213;50.858;3.964;2022-09-09T06:02:15;11.33;;;3.40;;
18176;SDS011;9213;50.858;3.964;2022-09-09T06:04:45;11.33;;;2.97;;
18176;SDS011;9213;50.858;3.964;2022-09-09T06:07:12;10.33;;;3.00;;
18176;SDS011;9213;50.858;3.964;2022-09-09T06:09:39;13.80;;;3.07;;
18176;SDS011;9213;50.858;3.964;2022-09-09T06:12:10;9.93;;;2.70;;
18176;SDS011;9213;50.858;3.964;2022-09-09T06:14:37;8.10;;;3.00;;
18176;SDS011;9213;50.858;3.964;2022-09-09T06:17:04;10.90;;;2.80;;
18176;SDS011;9213;50.858;3.964;2022-09-09T06:19:31;8.80;;;2.60;;
18176;SDS011;9213;50.858;3.964;2022-09-09T06:21:58;10.33;;;2.53;;
18176;SDS011;9213;50.858;3.964;2022-09-09T06:24:25;8.73;;;2.70;;
18176;SDS011;9213;50.858;3.964;2022-09-09T06:26:52;8.50;;;2.70;;
18176;SDS011;9213;50.858;3.964;2022-09-09T06:29:20;12.20;;;3.17;;
18176;SDS011;9213;50.858;3.964;2022-09-09T06:31:47;8.53;;;2.50;;
18176;SDS011;9213;50.858;3.964;2022-09-09T06:34:14;10.97;;;2.83;;
18176;SDS011;9213;50.858;3.964;2022-09-09T06:36:43;14.07;;;3.00;;
18176;SDS011;9213;50.858;3.964;2022-09-09T06:39:10;12.47;;;2.80;;
18176;SDS011;9213;50.858;3.964;2022-09-09T06:41:38;10.63;;;2.70;;
18176;SDS011;9213;50.858;3.964;2022-09-09T06:44:04;12.17;;;3.00;;
18176;SDS011;9213;50.858;3.964;2022-09-09T06:46:33;10.47;;;2.60;;
18176;SDS011;9213;50.858;3.964;2022-09-09T06:49:00;6.60;;;3.10;;
18176;SDS011;9213;50.858;3.964;2022-09-09T06:51:28;10.33;;;2.70;;
18176;SDS011;9213;50.858;3.964;2022-09-09T06:53:59;10.10;;;2.80;;
18176;SDS011;9213;50.858;3.964;2022-09-09T06:56:27;11.93;;;2.70;;
18176;SDS011;9213;50.858;3.964;2022-09-09T06:58:55;16.27;;;2.87;;
18176;SDS011;9213;50.858;3.964;2022-09-09T07:01:24;8.03;;;2.70;;
18176;SDS011;9213;50.858;3.964;2022-09-09T07:03:57;11.53;;;3.60;;
18176;SDS011;9213;50.858;3.964;2022-09-09T07:06:26;13.60;;;2.80;;
18176;SDS011;9213;50.858;3.964;2022-09-09T07:08:54;12.70;;;3.00;;
18176;SDS011;9213;50.858;3.964;2022-09-09T07:11:23;9.60;;;2.80;;
18176;SDS011;9213;50.858;3.964;2022-09-09T07:13:52;11.17;;;2.87;;
18176;SDS011;9213;50.858;3.964;2022-09-09T07:16:19;12.10;;;2.30;;
18176;SDS011;9213;50.858;3.964;2022-09-09T07:18:48;13.83;;;3.53;;
18176;SDS011;9213;50.858;3.964;2022-09-09T07:21:17;8.63;;;2.60;;
18176;SDS011;9213;50.858;3.964;2022-09-09T07:23:45;11.23;;;2.80;;
18176;SDS011;9213;50.858;3.964;2022-09-09T07:26:13;8.30;;;2.57;;
18176;SDS011;9213;50.858;3.964;2022-09-09T07:28:42;10.33;;;3.40;;
18176;SDS011;9213;50.858;3.964;2022-09-09T07:31:12;6.83;;;2.57;;
18176;SDS011;9213;50.858;3.964;2022-09-09T07:33:42;11.60;;;3.00;;
18176;SDS011;9213;50.858;3.964;2022-09-09T07:36:10;8.67;;;2.77;;
18176;SDS011;9213;50.858;3.964;2022-09-09T07:38:41;9.30;;;2.83;;
18176;SDS011;9213;50.858;3.964;2022-09-09T07:41:10;9.77;;;2.70;;
18176;SDS011;9213;50.858;3.964;2022-09-09T07:43:39;7.97;;;2.70;;
18176;SDS011;9213;50.858;3.964;2022-09-09T07:46:07;7.93;;;2.77;;
18176;SDS011;9213;50.858;3.964;2022-09-09T07:48:35;11.43;;;2.73;;
18176;SDS011;9213;50.858;3.964;2022-09-09T07:51:03;7.57;;;2.63;;
18176;SDS011;9213;50.858;3.964;2022-09-09T07:53:32;9.93;;;2.60;;
18176;SDS011;9213;50.858;3.964;2022-09-09T07:56:03;11.80;;;3.00;;
18176;SDS011;9213;50.858;3.964;2022-09-09T07:58:32;10.30;;;3.00;;
18176;SDS011;9213;50.858;3.964;2022-09-09T08:00:59;10.23;;;3.10;;
18176;SDS011;9213;50.858;3.964;2022-09-09T08:03:26;12.77;;;3.30;;
18176;SDS011;9213;50.858;3.964;2022-09-09T08:05:52;10.70;;;2.90;;
18176;SDS011;9213;50.858;3.964;2022-09-09T08:08:26;8.80;;;2.70;;
18176;SDS011;9213;50.858;3.964;2022-09-09T08:10:53;10.93;;;2.73;;
18176;SDS011;9213;50.858;3.964;2022-09-09T08:13:28;8.90;;;2.60;;
18176;SDS011;9213;50.858;3.964;2022-09-09T08:16:02;9.77;;;2.47;;
18176;SDS011;9213;50.858;3.964;2022-09-09T08:18:31;8.43;;;2.50;;
18176;SDS011;9213;50.858;3.964;2022-09-09T08:20:57;6.80;;;2.60;;
18176;SDS011;9213;50.858;3.964;2022-09-09T08:23:30;8.23;;;2.60;;
18176;SDS011;9213;50.858;3.964;2022-09-09T08:26:02;7.90;;;2.57;;
18176;SDS011;9213;50.858;3.964;2022-09-09T08:28:31;11.07;;;3.00;;
18176;SDS011;9213;50.858;3.964;2022-09-09T08:31:04;7.17;;;2.63;;
18176;SDS011;9213;50.858;3.964;2022-09-09T08:33:36;8.27;;;2.63;;
18176;SDS011;9213;50.858;3.964;2022-09-09T08:36:04;9.57;;;2.67;;
18176;SDS011;9213;50.858;3.964;2022-09-09T08:38:34;11.97;;;4.00;;
18176;SDS011;9213;50.858;3.964;2022-09-09T08:41:05;9.73;;;2.90;;
18176;SDS011;9213;50.858;3.964;2022-09-09T08:43:42;10.53;;;2.40;;
18176;SDS011;9213;50.858;3.964;2022-09-09T08:46:13;9.43;;;2.70;;
18176;SDS011;9213;50.858;3.964;2022-09-09T08:48:51;13.27;;;3.10;;
18176;SDS011;9213;50.858;3.964;2022-09-09T08:51:23;9.43;;;2.40;;
18176;SDS011;9213;50.858;3.964;2022-09-09T08:53:53;8.50;;;2.87;;
18176;SDS011;9213;50.858;3.964;2022-09-09T08:56:21;11.63;;;3.23;;
18176;SDS011;9213;50.858;3.964;2022-09-09T08:58:52;8.67;;;3.60;;
18176;SDS011;9213;50.858;3.964;2022-09-09T09:01:24;9.40;;;3.03;;
18176;SDS011;9213;50.858;3.964;2022-09-09T09:04:02;9.37;;;3.03;;
18176;SDS011;9213;50.858;3.964;2022-09-09T09:06:41;8.77;;;3.00;;
18176;SDS011;9213;50.858;3.964;2022-09-09T09:09:18;8.37;;;2.83;;
18176;SDS011;9213;50.858;3.964;2022-09-09T09:11:53;9.37;;;3.00;;
18176;SDS011;9213;50.858;3.964;2022-09-09T09:14:27;9.87;;;3.33;;
18176;SDS011;9213;50.858;3.964;2022-09-09T09:16:59;9.77;;;2.80;;
18176;SDS011;9213;50.858;3.964;2022-09-09T09:19:28;11.37;;;3.03;;
18176;SDS011;9213;50.858;3.964;2022-09-09T09:21:58;10.57;;;2.67;;
18176;SDS011;9213;50.858;3.964;2022-09-09T09:24:31;10.30;;;3.40;;
18176;SDS011;9213;50.858;3.964;2022-09-09T09:27:10;7.63;;;2.67;;
18176;SDS011;9213;50.858;3.964;2022-09-09T09:29:41;7.53;;;2.77;;
18176;SDS011;9213;50.858;3.964;2022-09-09T09:32:10;10.70;;;2.80;;
18176;SDS011;9213;50.858;3.964;2022-09-09T09:34:42;8.87;;;2.70;;
18176;SDS011;9213;50.858;3.964;2022-09-09T09:37:15;9.13;;;2.70;;
18176;SDS011;9213;50.858;3.964;2022-09-09T09:39:47;6.73;;;2.90;;
18176;SDS011;9213;50.858;3.964;2022-09-09T09:42:15;5.90;;;2.60;;
18176;SDS011;9213;50.858;3.964;2022-09-09T09:44:45;7.47;;;2.87;;
18176;SDS011;9213;50.858;3.964;2022-09-09T09:47:13;8.77;;;2.70;;
18176;SDS011;9213;50.858;3.964;2022-09-09T09:49:50;6.70;;;2.93;;
18176;SDS011;9213;50.858;3.964;2022-09-09T09:52:20;7.97;;;3.03;;
18176;SDS011;9213;50.858;3.964;2022-09-09T09:54:49;9.87;;;2.97;;
18176;SDS011;9213;50.858;3.964;2022-09-09T09:57:16;7.90;;;2.47;;
18176;SDS011;9213;50.858;3.964;2022-09-09T09:59:59;9.33;;;3.17;;
18176;SDS011;9213;50.858;3.964;2022-09-09T10:02:31;6.27;;;2.27;;
18176;SDS011;9213;50.858;3.964;2022-09-09T10:05:06;8.03;;;2.60;;
18176;SDS011;9213;50.858;3.964;2022-09-09T10:07:40;5.47;;;2.10;;
18176;SDS011;9213;50.858;3.964;2022-09-09T10:10:09;8.03;;;2.67;;
18176;SDS011;9213;50.858;3.964;2022-09-09T10:12:43;5.17;;;2.10;;
18176;SDS011;9213;50.858;3.964;2022-09-09T10:15:26;4.77;;;1.90;;
18176;SDS011;9213;50.858;3.964;2022-09-09T10:18:05;9.83;;;2.20;;
18176;SDS011;9213;50.858;3.964;2022-09-09T10:20:42;6.70;;;2.13;;
18176;SDS011;9213;50.858;3.964;2022-09-09T10:23:21;5.47;;;2.30;;
18176;SDS011;9213;50.858;3.964;2022-09-09T10:26:09;7.33;;;2.37;;
18176;SDS011;9213;50.858;3.964;2022-09-09T10:28:56;6.10;;;2.17;;
18176;SDS011;9213;50.858;3.964;2022-09-09T10:31:34;4.87;;;1.77;;
18176;SDS011;9213;50.858;3.964;2022-09-09T10:34:12;8.03;;;2.27;;
18176;SDS011;9213;50.858;3.964;2022-09-09T10:36:46;4.43;;;2.10;;
18176;SDS011;9213;50.858;3.964;2022-09-09T10:39:17;6.20;;;2.10;;
18176;SDS011;9213;50.858;3.964;2022-09-09T10:41:57;8.40;;;2.00;;
18176;SDS011;9213;50.858;3.964;2022-09-09T10:44:34;4.33;;;1.80;;
18176;SDS011;9213;50.858;3.964;2022-09-09T10:47:17;8.65;;;2.30;;
18176;SDS011;9213;50.858;3.964;2022-09-09T10:50:02;3.20;;;1.53;;
18176;SDS011;9213;50.858;3.964;2022-09-09T10:52:46;5.77;;;1.87;;
18176;SDS011;9213;50.858;3.964;2022-09-09T10:55:20;6.97;;;2.30;;
18176;SDS011;9213;50.858;3.964;2022-09-09T10:57:52;4.73;;;2.00;;
18176;SDS011;9213;50.858;3.964;2022-09-09T11:00:23;5.43;;;2.10;;
18176;SDS011;9213;50.858;3.964;2022-09-09T11:02:55;5.53;;;1.75;;
18176;SDS011;9213;50.858;3.964;2022-09-09T11:05:24;5.90;;;2.05;;
18176;SDS011;9213;50.858;3.964;2022-09-09T11:07:57;2.72;;;1.98;;
18176;SDS011;9213;50.858;3.964;2022-09-09T11:10:29;4.03;;;1.58;;
18176;SDS011;9213;50.858;3.964;2022-09-09T11:13:05;4.13;;;1.47;;
18176;SDS011;9213;50.858;3.964;2022-09-09T11:15:39;2.67;;;1.52;;
18176;SDS011;9213;50.858;3.964;2022-09-09T11:18:12;4.10;;;1.90;;
18176;SDS011;9213;50.858;3.964;2022-09-09T11:20:45;5.93;;;1.90;;
18176;SDS011;9213;50.858;3.964;2022-09-09T11:23:17;5.38;;;1.70;;
18176;SDS011;9213;50.858;3.964;2022-09-09T11:25:48;6.15;;;2.10;;
18176;SDS011;9213;50.858;3.964;2022-09-09T11:28:26;4.87;;;1.90;;
18176;SDS011;9213;50.858;3.964;2022-09-09T11:31:05;4.50;;;1.67;;
18176;SDS011;9213;50.858;3.964;2022-09-09T11:33:51;4.43;;;2.17;;
18176;SDS011;9213;50.858;3.964;2022-09-09T11:39:29;2.93;;;1.70;;
18176;SDS011;9213;50.858;3.964;2022-09-09T11:42:15;5.47;;;1.75;;
18176;SDS011;9213;50.858;3.964;2022-09-09T11:44:44;3.67;;;1.70;;
18176;SDS011;9213;50.858;3.964;2022-09-09T11:47:16;6.82;;;2.75;;
18176;SDS011;9213;50.858;3.964;2022-09-09T11:49:50;4.70;;;1.77;;
18176;SDS011;9213;50.858;3.964;2022-09-09T11:52:22;4.07;;;1.85;;
18176;SDS011;9213;50.858;3.964;2022-09-09T11:54:53;4.15;;;1.77;;
18176;SDS011;9213;50.858;3.964;2022-09-09T11:57:25;4.18;;;2.03;;
18176;SDS011;9213;50.858;3.964;2022-09-09T11:59:56;4.55;;;1.73;;
18176;SDS011;9213;50.858;3.964;2022-09-09T12:02:24;4.25;;;1.70;;
18176;SDS011;9213;50.858;3.964;2022-09-09T12:04:57;6.35;;;1.83;;
18176;SDS011;9213;50.858;3.964;2022-09-09T12:07:33;6.93;;;2.20;;
18176;SDS011;9213;50.858;3.964;2022-09-09T12:10:17;4.50;;;1.80;;
18176;SDS011;9213;50.858;3.964;2022-09-09T12:12:48;8.10;;;2.17;;
18176;SDS011;9213;50.858;3.964;2022-09-09T12:15:19;5.05;;;1.90;;
18176;SDS011;9213;50.858;3.964;2022-09-09T12:17:50;3.33;;;1.80;;
18176;SDS011;9213;50.858;3.964;2022-09-09T12:20:20;4.05;;;1.92;;
18176;SDS011;9213;50.858;3.964;2022-09-09T12:22:51;4.55;;;1.70;;
18176;SDS011;9213;50.858;3.964;2022-09-09T12:25:32;3.67;;;1.90;;
18176;SDS011;9213;50.858;3.964;2022-09-09T12:28:05;4.57;;;1.95;;
18176;SDS011;9213;50.858;3.964;2022-09-09T12:30:44;4.38;;;1.95;;
18176;SDS011;9213;50.858;3.964;2022-09-09T12:33:18;3.90;;;1.75;;
18176;SDS011;9213;50.858;3.964;2022-09-09T12:35:47;4.90;;;1.90;;
18176;SDS011;9213;50.858;3.964;2022-09-09T12:38:21;3.67;;;1.80;;
18176;SDS011;9213;50.858;3.964;2022-09-09T12:40:54;5.70;;;2.25;;
18176;SDS011;9213;50.858;3.964;2022-09-09T12:43:23;3.60;;;1.73;;
18176;SDS011;9213;50.858;3.964;2022-09-09T12:45:52;4.05;;;2.03;;
18176;SDS011;9213;50.858;3.964;2022-09-09T12:48:25;4.40;;;1.98;;
18176;SDS011;9213;50.858;3.964;2022-09-09T12:50:58;3.08;;;1.73;;
18176;SDS011;9213;50.858;3.964;2022-09-09T12:53:26;4.22;;;1.98;;
18176;SDS011;9213;50.858;3.964;2022-09-09T12:55:57;5.22;;;2.13;;
18176;SDS011;9213;50.858;3.964;2022-09-09T12:58:25;6.57;;;2.20;;
18176;SDS011;9213;50.858;3.964;2022-09-09T13:00:57;5.43;;;1.98;;
18176;SDS011;9213;50.858;3.964;2022-09-09T13:03:26;3.08;;;1.60;;
18176;SDS011;9213;50.858;3.964;2022-09-09T13:05:53;5.57;;;1.90;;
18176;SDS011;9213;50.858;3.964;2022-09-09T13:08:36;3.97;;;1.73;;
18176;SDS011;9213;50.858;3.964;2022-09-09T13:11:04;3.72;;;1.63;;
18176;SDS011;9213;50.858;3.964;2022-09-09T13:13:37;3.10;;;1.60;;
18176;SDS011;9213;50.858;3.964;2022-09-09T13:16:06;2.72;;;1.77;;
18176;SDS011;9213;50.858;3.964;2022-09-09T13:18:44;6.78;;;1.92;;
18176;SDS011;9213;50.858;3.964;2022-09-09T13:21:12;3.65;;;1.70;;
18176;SDS011;9213;50.858;3.964;2022-09-09T13:23:40;4.15;;;1.48;;
18176;SDS011;9213;50.858;3.964;2022-09-09T13:26:19;4.00;;;1.50;;
18176;SDS011;9213;50.858;3.964;2022-09-09T13:28:48;3.20;;;1.08;;
18176;SDS011;9213;50.858;3.964;2022-09-09T13:31:19;1.60;;;1.38;;
18176;SDS011;9213;50.858;3.964;2022-09-09T13:33:48;3.28;;;1.58;;
18176;SDS011;9213;50.858;3.964;2022-09-09T13:36:16;4.25;;;1.50;;
18176;SDS011;9213;50.858;3.964;2022-09-09T13:38:55;2.58;;;1.33;;
18176;SDS011;9213;50.858;3.964;2022-09-09T13:41:25;3.63;;;1.38;;
18176;SDS011;9213;50.858;3.964;2022-09-09T13:43:56;1.65;;;1.35;;
18176;SDS011;9213;50.858;3.964;2022-09-09T13:46:25;3.97;;;1.50;;
18176;SDS011;9213;50.858;3.964;2022-09-09T13:48:55;3.35;;;1.40;;
18176;SDS011;9213;50.858;3.964;2022-09-09T13:51:28;3.58;;;1.70;;
18176;SDS011;9213;50.858;3.964;2022-09-09T13:53:59;3.38;;;1.52;;
18176;SDS011;9213;50.858;3.964;2022-09-09T13:56:26;3.70;;;1.55;;
18176;SDS011;9213;50.858;3.964;2022-09-09T13:58:54;4.70;;;2.10;;
18176;SDS011;9213;50.858;3.964;2022-09-09T14:01:20;5.22;;;1.75;;
18176;SDS011;9213;50.858;3.964;2022-09-09T14:03:47;4.65;;;1.70;;
18176;SDS011;9213;50.858;3.964;2022-09-09T14:06:15;6.07;;;2.00;;
18176;SDS011;9213;50.858;3.964;2022-09-09T14:08:45;4.68;;;1.63;;
18176;SDS011;9213;50.858;3.964;2022-09-09T14:11:12;5.65;;;1.50;;
18176;SDS011;9213;50.858;3.964;2022-09-09T14:13:39;2.22;;;1.42;;
18176;SDS011;9213;50.858;3.964;2022-09-09T14:16:06;2.88;;;1.50;;
18176;SDS011;9213;50.858;3.964;2022-09-09T14:18:34;4.32;;;1.70;;
18176;SDS011;9213;50.858;3.964;2022-09-09T14:21:02;3.40;;;1.58;;
18176;SDS011;9213;50.858;3.964;2022-09-09T14:23:29;3.17;;;1.77;;
18176;SDS011;9213;50.858;3.964;2022-09-09T14:25:58;2.60;;;1.63;;
18176;SDS011;9213;50.858;3.964;2022-09-09T14:28:25;3.78;;;1.85;;
18176;SDS011;9213;50.858;3.964;2022-09-09T14:30:53;2.15;;;1.55;;
18176;SDS011;9213;50.858;3.964;2022-09-09T14:33:20;5.32;;;2.10;;
18176;SDS011;9213;50.858;3.964;2022-09-09T14:35:47;4.18;;;1.90;;
18176;SDS011;9213;50.858;3.964;2022-09-09T14:38:14;3.25;;;1.38;;
18176;SDS011;9213;50.858;3.964;2022-09-09T14:40:41;4.38;;;1.58;;
18176;SDS011;9213;50.858;3.964;2022-09-09T14:43:13;3.20;;;1.48;;
18176;SDS011;9213;50.858;3.964;2022-09-09T14:45:40;5.30;;;2.30;;
18176;SDS011;9213;50.858;3.964;2022-09-09T14:48:08;4.65;;;1.92;;
18176;SDS011;9213;50.858;3.964;2022-09-09T14:50:35;3.15;;;1.60;;
18176;SDS011;9213;50.858;3.964;2022-09-09T14:53:05;4.45;;;1.60;;
18176;SDS011;9213;50.858;3.964;2022-09-09T14:55:32;2.60;;;1.55;;
18176;SDS011;9213;50.858;3.964;2022-09-09T14:57:58;3.88;;;1.48;;
18176;SDS011;9213;50.858;3.964;2022-09-09T15:00:27;5.28;;;2.00;;
18176;SDS011;9213;50.858;3.964;2022-09-09T15:02:55;2.20;;;1.70;;
18176;SDS011;9213;50.858;3.964;2022-09-09T15:05:22;3.58;;;1.85;;
18176;SDS011;9213;50.858;3.964;2022-09-09T15:07:49;2.80;;;1.50;;
18176;SDS011;9213;50.858;3.964;2022-09-09T15:10:16;2.92;;;1.70;;
18176;SDS011;9213;50.858;3.964;2022-09-09T15:12:43;4.30;;;1.60;;
18176;SDS011;9213;50.858;3.964;2022-09-09T15:15:10;4.13;;;1.98;;
18176;SDS011;9213;50.858;3.964;2022-09-09T15:17:39;2.97;;;1.30;;
18176;SDS011;9213;50.858;3.964;2022-09-09T15:20:06;3.17;;;1.58;;
18176;SDS011;9213;50.858;3.964;2022-09-09T15:22:34;3.13;;;1.52;;
18176;SDS011;9213;50.858;3.964;2022-09-09T15:25:02;3.25;;;1.48;;